createdAt,value
2023-05-19T00:01:31.256Z,3.00
2023-05-19T00:04:18.464Z,3.00
2023-05-19T00:07:08.383Z,2.30
2023-05-19T00:09:55.106Z,2.60
2023-05-19T00:12:42.981Z,3.10
2023-05-19T00:15:29.653Z,2.50
2023-05-19T00:18:16.823Z,2.70
2023-05-19T00:21:03.376Z,2.30
2023-05-19T00:23:50.018Z,2.50
2023-05-19T00:26:37.251Z,2.20
2023-05-19T00:29:24.530Z,2.10
2023-05-19T00:32:12.187Z,2.50
2023-05-19T00:34:59.912Z,1.90
2023-05-19T00:37:46.725Z,2.20
2023-05-19T00:40:36.293Z,2.10
2023-05-19T00:43:22.931Z,1.90
2023-05-19T00:46:11.071Z,2.10
2023-05-19T00:48:57.626Z,2.30
2023-05-19T00:51:44.319Z,2.40
2023-05-19T00:54:31.428Z,2.50
2023-05-19T00:57:18.053Z,2.60
2023-05-19T01:00:05.785Z,2.70
2023-05-19T01:02:52.622Z,2.50
2023-05-19T01:05:41.786Z,2.70
2023-05-19T01:08:31.683Z,2.50
2023-05-19T01:11:17.888Z,3.20
2023-05-19T01:14:04.380Z,2.90
2023-05-19T01:16:57.455Z,2.60
2023-05-19T01:19:56.374Z,2.20
2023-05-19T01:23:05.183Z,2.50
2023-05-19T01:28:49.916Z,2.20
2023-05-19T01:31:38.572Z,2.80
2023-05-19T01:34:27.133Z,2.50
2023-05-19T01:37:16.267Z,2.40
2023-05-19T01:40:02.774Z,2.60
2023-05-19T01:42:54.667Z,2.80
2023-05-19T01:45:42.989Z,2.50
2023-05-19T01:48:30.738Z,2.50
2023-05-19T01:51:17.377Z,2.50
2023-05-19T01:54:03.878Z,3.00
2023-05-19T01:57:04.283Z,2.40
2023-05-19T02:00:20.544Z,2.50
2023-05-19T02:03:22.706Z,2.90
2023-05-19T02:06:37.086Z,2.90
2023-05-19T02:09:33.388Z,3.00
2023-05-19T02:12:34.619Z,2.80
2023-05-19T02:15:25.970Z,3.20
2023-05-19T02:18:14.108Z,3.70
2023-05-19T02:21:02.376Z,3.00
2023-05-19T02:23:48.963Z,2.50
2023-05-19T02:26:35.243Z,2.50
2023-05-19T02:29:23.865Z,3.80
2023-05-19T02:32:11.842Z,2.40
2023-05-19T02:35:00.191Z,2.50
2023-05-19T02:37:46.685Z,2.80
2023-05-19T02:40:34.099Z,2.20
2023-05-19T02:43:20.946Z,3.10
2023-05-19T02:46:07.488Z,2.60
2023-05-19T02:48:54.052Z,3.70
2023-05-19T02:51:40.781Z,3.20
2023-05-19T02:54:27.169Z,3.20
2023-05-19T02:57:13.739Z,3.50
2023-05-19T03:00:00.778Z,3.60
2023-05-19T03:02:47.547Z,3.60
2023-05-19T03:05:33.934Z,3.60
2023-05-19T03:08:20.791Z,3.80
2023-05-19T03:11:07.381Z,3.10
2023-05-19T03:13:53.812Z,3.20
2023-05-19T03:16:42.268Z,3.40
2023-05-19T03:19:29.277Z,3.20
2023-05-19T03:22:15.740Z,3.10
2023-05-19T03:25:02.492Z,3.60
2023-05-19T03:27:49.262Z,2.90
2023-05-19T03:30:35.716Z,2.70
2023-05-19T03:33:29.983Z,2.90
2023-05-19T03:36:17.517Z,3.30
2023-05-19T03:39:04.463Z,2.90
2023-05-19T03:41:51.401Z,2.40
2023-05-19T03:44:37.990Z,2.80
2023-05-19T03:47:24.951Z,2.90
2023-05-19T03:50:22.857Z,2.70
2023-05-19T03:53:16.220Z,3.30
2023-05-19T03:56:02.934Z,2.60
2023-05-19T03:58:50.061Z,3.50
2023-05-19T04:01:36.736Z,3.50
2023-05-19T04:04:23.654Z,3.20
2023-05-19T04:07:10.450Z,3.40
2023-05-19T04:09:57.493Z,3.50
2023-05-19T04:12:43.868Z,2.50
2023-05-19T04:15:30.370Z,2.60
2023-05-19T04:18:16.928Z,2.80
2023-05-19T04:21:03.777Z,2.70
2023-05-19T04:23:50.367Z,3.10
2023-05-19T04:26:38.443Z,3.00
2023-05-19T04:29:24.803Z,2.90
2023-05-19T04:32:11.751Z,1.90
2023-05-19T04:34:59.049Z,2.50
2023-05-19T04:37:46.382Z,2.50
2023-05-19T04:40:33.840Z,2.80
2023-05-19T04:43:22.357Z,3.10
2023-05-19T04:46:13.191Z,3.00
2023-05-19T04:49:01.365Z,2.70
2023-05-19T04:51:51.079Z,2.70
2023-05-19T04:54:41.960Z,2.60
2023-05-19T04:57:30.109Z,2.10
2023-05-19T05:00:17.432Z,2.10
2023-05-19T05:03:24.472Z,2.00
2023-05-19T05:06:11.732Z,2.00
2023-05-19T05:08:58.127Z,2.50
2023-05-19T05:11:45.169Z,2.40
2023-05-19T05:14:31.774Z,2.20
2023-05-19T05:17:19.137Z,1.90
2023-05-19T05:20:06.978Z,1.80
2023-05-19T05:22:54.145Z,1.90
2023-05-19T05:25:41.812Z,2.40
2023-05-19T05:28:28.514Z,2.20
2023-05-19T05:31:16.232Z,2.60
2023-05-19T05:34:03.153Z,2.00
2023-05-19T05:36:51.174Z,1.90
2023-05-19T05:39:38.120Z,2.00
2023-05-19T05:42:25.321Z,2.40
2023-05-19T05:45:12.915Z,2.40
2023-05-19T05:48:01.003Z,2.20
2023-05-19T05:50:49.125Z,2.20
2023-05-19T05:53:43.364Z,2.00
2023-05-19T05:56:30.791Z,1.60
2023-05-19T05:59:17.795Z,1.90
2023-05-19T06:02:05.176Z,2.30
2023-05-19T06:04:54.252Z,2.00
2023-05-19T06:07:41.659Z,2.00
2023-05-19T06:10:29.379Z,2.20
2023-05-19T06:13:18.923Z,2.00
2023-05-19T06:16:06.241Z,2.10
2023-05-19T06:18:59.045Z,1.80
2023-05-19T06:21:45.861Z,2.60
2023-05-19T06:24:32.750Z,1.60
2023-05-19T06:27:19.468Z,1.80
2023-05-19T06:30:08.797Z,2.20
2023-05-19T06:33:01.740Z,2.10
2023-05-19T06:35:48.400Z,2.10
2023-05-19T06:38:34.861Z,2.30
2023-05-19T06:41:21.968Z,2.00
2023-05-19T06:44:11.634Z,2.70
2023-05-19T06:46:58.191Z,2.00
2023-05-19T06:49:45.828Z,2.20
2023-05-19T06:52:33.268Z,2.40
2023-05-19T06:55:20.210Z,2.00
2023-05-19T06:58:08.364Z,2.70
2023-05-19T07:00:54.933Z,2.30
2023-05-19T07:03:42.575Z,1.80
2023-05-19T07:06:31.422Z,1.90
2023-05-19T07:09:18.333Z,2.00
2023-05-19T07:12:06.411Z,2.20
2023-05-19T07:14:53.687Z,1.70
2023-05-19T07:17:40.507Z,2.10
2023-05-19T07:20:28.458Z,2.00
2023-05-19T07:23:17.362Z,2.00
2023-05-19T07:26:05.761Z,2.20
2023-05-19T07:28:52.801Z,1.90
2023-05-19T07:31:39.427Z,2.00
2023-05-19T07:34:26.444Z,2.20
2023-05-19T07:37:12.709Z,2.30
2023-05-19T07:39:59.443Z,2.30
2023-05-19T07:42:46.058Z,2.50
2023-05-19T07:45:32.577Z,2.00
2023-05-19T07:48:22.503Z,2.20
2023-05-19T07:51:10.295Z,2.10
2023-05-19T07:53:57.508Z,1.90
2023-05-19T07:56:43.830Z,2.20
2023-05-19T07:59:30.491Z,1.90
2023-05-19T08:02:17.333Z,2.20
2023-05-19T08:05:04.652Z,2.00
2023-05-19T08:07:51.765Z,2.20
2023-05-19T08:10:38.309Z,2.40
2023-05-19T08:13:24.615Z,1.90
2023-05-19T08:16:10.762Z,1.80
2023-05-19T08:18:57.235Z,2.10
2023-05-19T08:21:44.741Z,2.20
2023-05-19T08:24:32.878Z,2.20
2023-05-19T08:27:19.418Z,2.30
2023-05-19T08:30:06.724Z,2.50
2023-05-19T08:32:52.967Z,2.20
2023-05-19T08:35:39.553Z,1.80
2023-05-19T08:38:26.637Z,1.80
2023-05-19T08:41:13.139Z,2.10
2023-05-19T08:43:59.806Z,2.00
2023-05-19T08:46:47.835Z,2.10
2023-05-19T08:49:42.384Z,2.30
2023-05-19T08:52:42.502Z,2.00
2023-05-19T08:55:42.156Z,2.10
2023-05-19T08:58:29.282Z,1.70
2023-05-19T09:01:19.260Z,1.90
2023-05-19T09:04:07.256Z,2.00
2023-05-19T09:06:54.190Z,2.60
2023-05-19T09:09:43.754Z,2.60
2023-05-19T09:12:30.368Z,2.40
2023-05-19T09:15:20.894Z,2.20
2023-05-19T09:18:12.666Z,2.10
2023-05-19T09:21:03.141Z,2.20
2023-05-19T09:23:50.148Z,2.00
2023-05-19T09:26:41.262Z,1.80
2023-05-19T09:29:27.861Z,2.20
2023-05-19T09:32:25.149Z,2.20
2023-05-19T09:35:17.183Z,2.00
2023-05-19T09:38:03.791Z,2.10
2023-05-19T09:40:50.068Z,2.20
2023-05-19T09:43:36.854Z,2.10
2023-05-19T09:46:29.935Z,2.00
2023-05-19T09:49:31.320Z,1.90
2023-05-19T09:55:06.869Z,2.00
2023-05-19T09:57:56.240Z,2.20
2023-05-19T10:00:43.322Z,2.10
2023-05-19T10:03:32.583Z,2.10
2023-05-19T10:06:19.994Z,2.30
2023-05-19T10:09:06.375Z,2.20
2023-05-19T10:11:56.628Z,2.00
2023-05-19T10:14:43.349Z,2.30
2023-05-19T10:17:30.519Z,2.50
2023-05-19T10:20:17.895Z,2.80
2023-05-19T10:23:04.366Z,2.40
2023-05-19T10:25:55.456Z,2.60
2023-05-19T10:28:44.590Z,2.80
2023-05-19T10:31:34.182Z,2.80
2023-05-19T10:34:33.325Z,2.10
2023-05-19T10:37:37.762Z,2.30
2023-05-19T10:40:37.125Z,2.50
2023-05-19T10:43:54.570Z,3.20
2023-05-19T10:46:43.066Z,2.50
2023-05-19T10:49:35.572Z,2.20
2023-05-19T10:52:25.704Z,2.70
2023-05-19T10:55:17.713Z,2.30
2023-05-19T10:58:04.614Z,2.00
2023-05-19T11:01:00.697Z,2.60
2023-05-19T11:03:57.318Z,2.00
2023-05-19T11:06:51.931Z,2.30
2023-05-19T11:09:40.931Z,2.10
2023-05-19T11:12:27.957Z,2.60
2023-05-19T11:15:15.722Z,2.40
2023-05-19T11:18:04.577Z,2.10
2023-05-19T11:20:58.397Z,2.30
2023-05-19T11:23:45.227Z,2.10
2023-05-19T11:26:43.325Z,1.80
2023-05-19T11:29:32.877Z,2.20
2023-05-19T11:32:22.780Z,2.20
2023-05-19T11:35:10.267Z,2.50
2023-05-19T11:37:57.566Z,2.10
2023-05-19T11:40:44.497Z,2.30
2023-05-19T11:43:31.216Z,2.40
2023-05-19T11:46:18.083Z,2.30
2023-05-19T11:49:05.838Z,2.30
2023-05-19T11:51:52.528Z,2.60
2023-05-19T11:54:41.902Z,2.80
2023-05-19T11:57:28.507Z,2.10
2023-05-19T12:00:15.765Z,2.90
2023-05-19T12:03:02.025Z,2.30
2023-05-19T12:05:49.692Z,3.20
2023-05-19T12:08:37.540Z,2.50
2023-05-19T12:11:24.411Z,2.30
2023-05-19T12:14:12.323Z,2.80
2023-05-19T12:16:59.510Z,2.60
2023-05-19T12:19:48.061Z,2.30
2023-05-19T12:22:35.490Z,2.00
2023-05-19T12:25:23.263Z,2.20
2023-05-19T12:28:10.075Z,2.70
2023-05-19T12:30:58.534Z,3.20
2023-05-19T12:33:48.633Z,2.30
2023-05-19T12:36:35.367Z,2.30
2023-05-19T12:39:23.367Z,2.00
2023-05-19T12:42:12.458Z,2.40
2023-05-19T12:45:01.567Z,2.50
2023-05-19T12:47:51.358Z,2.10
2023-05-19T12:50:38.433Z,1.80
2023-05-19T12:53:27.648Z,1.90
2023-05-19T12:56:15.528Z,2.30
2023-05-19T12:59:02.331Z,2.30
2023-05-19T13:01:59.361Z,2.10
2023-05-19T13:04:46.244Z,2.30
2023-05-19T13:07:33.249Z,2.30
2023-05-19T13:10:20.726Z,1.90
2023-05-19T13:13:08.440Z,2.10
2023-05-19T13:15:55.675Z,2.60
2023-05-19T13:18:42.478Z,2.70
2023-05-19T13:21:28.628Z,2.30
2023-05-19T13:24:15.624Z,1.90
2023-05-19T13:27:03.292Z,2.50
2023-05-19T13:29:49.765Z,2.20
2023-05-19T13:32:36.269Z,2.20
2023-05-19T13:35:23.341Z,2.50
2023-05-19T13:38:10.826Z,2.60
2023-05-19T13:40:58.074Z,2.30
2023-05-19T13:43:44.799Z,3.00
2023-05-19T13:46:44.170Z,2.50
2023-05-19T13:49:31.611Z,1.90
2023-05-19T13:52:19.099Z,2.40
2023-05-19T13:55:07.543Z,2.20
2023-05-19T13:57:54.143Z,2.80
2023-05-19T14:00:41.591Z,2.40
2023-05-19T14:03:28.128Z,2.20
2023-05-19T14:06:14.751Z,2.50
2023-05-19T14:09:01.504Z,2.40
2023-05-19T14:11:47.891Z,2.70
2023-05-19T14:14:34.277Z,2.60
2023-05-19T14:17:21.205Z,2.10
2023-05-19T14:20:08.496Z,2.20
2023-05-19T14:22:55.592Z,2.50
2023-05-19T14:25:42.847Z,2.30
2023-05-19T14:28:29.711Z,2.30
2023-05-19T14:31:16.368Z,2.20
2023-05-19T14:34:03.185Z,2.20
2023-05-19T14:36:49.717Z,2.50
2023-05-19T14:39:36.141Z,2.70
2023-05-19T14:42:23.454Z,2.90
2023-05-19T14:45:11.213Z,2.80
2023-05-19T14:47:58.255Z,2.30
2023-05-19T14:50:44.821Z,3.00
2023-05-19T14:53:31.305Z,2.40
2023-05-19T14:56:17.936Z,2.20
2023-05-19T14:59:05.032Z,2.40
2023-05-19T15:01:51.867Z,2.50
2023-05-19T15:04:38.455Z,2.90
2023-05-19T15:07:25.603Z,2.60
2023-05-19T15:10:12.421Z,2.20
2023-05-19T15:13:00.614Z,2.00
2023-05-19T15:15:46.869Z,2.20
2023-05-19T15:18:34.231Z,2.10
2023-05-19T15:21:20.867Z,3.10
2023-05-19T15:24:07.327Z,2.70
2023-05-19T15:26:55.521Z,2.30
2023-05-19T15:29:41.896Z,2.50
2023-05-19T15:32:28.574Z,2.50
2023-05-19T15:35:15.218Z,2.40
2023-05-19T15:38:06.124Z,2.00
2023-05-19T15:40:53.518Z,3.20
2023-05-19T15:43:41.462Z,2.90
2023-05-19T15:46:28.937Z,2.80
2023-05-19T15:49:15.482Z,2.40
2023-05-19T15:52:03.155Z,2.70
2023-05-19T15:54:49.896Z,2.90
2023-05-19T15:57:36.349Z,3.90
2023-05-19T16:00:23.661Z,3.30
2023-05-19T16:03:10.485Z,2.90
2023-05-19T16:05:57.066Z,2.80
2023-05-19T16:08:43.678Z,2.80
2023-05-19T16:11:30.118Z,3.80
2023-05-19T16:14:16.811Z,3.60
2023-05-19T16:17:05.116Z,3.50
2023-05-19T16:19:51.652Z,3.20
2023-05-19T16:22:38.757Z,2.90
2023-05-19T16:25:25.957Z,2.90
2023-05-19T16:28:12.377Z,3.30
2023-05-19T16:31:00.339Z,3.70
2023-05-19T16:33:46.989Z,3.70
2023-05-19T16:36:33.478Z,3.40
2023-05-19T16:39:20.114Z,3.80
2023-05-19T16:42:07.032Z,3.70
2023-05-19T16:44:53.782Z,3.80
2023-05-19T16:47:40.735Z,3.30
2023-05-19T16:50:27.690Z,2.80
2023-05-19T16:53:14.353Z,3.40
2023-05-19T16:56:00.948Z,4.10
2023-05-19T16:58:47.410Z,4.10
2023-05-19T17:01:34.187Z,3.80
2023-05-19T17:04:21.048Z,4.70
2023-05-19T17:07:07.920Z,4.20
2023-05-19T17:09:55.973Z,4.50
2023-05-19T17:12:42.603Z,3.20
2023-05-19T17:15:29.129Z,3.80
2023-05-19T17:18:16.177Z,3.90
2023-05-19T17:21:05.033Z,3.50
2023-05-19T17:23:51.941Z,3.90
2023-05-19T17:26:39.797Z,3.20
2023-05-19T17:29:27.968Z,4.10
2023-05-19T17:32:14.501Z,3.90
2023-05-19T17:35:03.364Z,3.80
2023-05-19T17:37:50.164Z,4.40
2023-05-19T17:40:37.054Z,3.60
2023-05-19T17:43:23.730Z,3.50
2023-05-19T17:46:12.038Z,4.10
2023-05-19T17:48:59.035Z,3.40
2023-05-19T17:51:45.967Z,3.80
2023-05-19T17:54:33.027Z,3.80
2023-05-19T17:57:24.686Z,3.70
2023-05-19T18:00:12.855Z,4.40
2023-05-19T18:02:59.999Z,3.10
2023-05-19T18:05:48.162Z,4.10
2023-05-19T18:08:37.605Z,3.50
2023-05-19T18:11:24.211Z,2.90
2023-05-19T18:14:11.122Z,3.00
2023-05-19T18:16:58.288Z,3.60
2023-05-19T18:19:44.970Z,3.90
2023-05-19T18:22:31.475Z,3.60
2023-05-19T18:25:20.052Z,4.40
2023-05-19T18:28:06.541Z,3.90
2023-05-19T18:31:04.952Z,4.10
2023-05-19T18:33:51.342Z,4.20
2023-05-19T18:36:38.704Z,3.60
2023-05-19T18:39:27.299Z,4.00
2023-05-19T18:42:15.543Z,3.50
2023-05-19T18:45:01.985Z,4.00
2023-05-19T18:47:48.910Z,3.50
2023-05-19T18:50:36.564Z,4.00
2023-05-19T18:53:25.381Z,3.30
2023-05-19T18:56:12.799Z,5.40
2023-05-19T18:58:59.415Z,5.80
2023-05-19T19:01:46.035Z,5.00
2023-05-19T19:04:32.977Z,4.90
2023-05-19T19:07:19.685Z,5.00
2023-05-19T19:10:09.058Z,4.60
2023-05-19T19:12:55.354Z,4.30
2023-05-19T19:15:42.151Z,4.30
2023-05-19T19:18:28.611Z,4.30
2023-05-19T19:21:15.446Z,4.30
2023-05-19T19:24:02.173Z,4.20
2023-05-19T19:26:48.555Z,4.90
2023-05-19T19:29:35.562Z,4.60
2023-05-19T19:32:23.070Z,4.20
2023-05-19T19:35:09.721Z,4.00
2023-05-19T19:37:56.702Z,4.40
2023-05-19T19:40:43.630Z,3.80
2023-05-19T19:43:30.625Z,4.90
2023-05-19T19:46:17.150Z,4.60
2023-05-19T19:49:04.095Z,4.80
2023-05-19T19:51:51.396Z,4.10
2023-05-19T19:54:38.125Z,4.20
2023-05-19T19:57:25.570Z,4.60
2023-05-19T20:00:13.146Z,4.20
2023-05-19T20:03:04.463Z,3.60
2023-05-19T20:05:53.895Z,4.90
2023-05-19T20:08:40.527Z,3.30
2023-05-19T20:11:27.594Z,4.30
2023-05-19T20:14:13.995Z,4.20
2023-05-19T20:17:00.549Z,3.30
2023-05-19T20:19:48.324Z,3.60
2023-05-19T20:22:34.637Z,3.30
2023-05-19T20:25:21.355Z,4.40
2023-05-19T20:28:08.612Z,3.80
2023-05-19T20:30:55.307Z,4.80
2023-05-19T20:33:42.053Z,4.00
2023-05-19T20:36:29.167Z,3.60
2023-05-19T20:39:15.669Z,3.50
2023-05-19T20:42:01.950Z,3.30
2023-05-19T20:44:48.443Z,4.30
2023-05-19T20:47:35.637Z,4.20
2023-05-19T20:50:22.417Z,4.40
2023-05-19T20:53:09.368Z,3.40
2023-05-19T20:55:56.536Z,3.40
2023-05-19T20:58:43.165Z,3.50
2023-05-19T21:01:30.072Z,3.40
2023-05-19T21:04:16.580Z,3.50
2023-05-19T21:07:03.590Z,4.20
2023-05-19T21:09:51.602Z,3.40
2023-05-19T21:12:38.731Z,4.60
2023-05-19T21:15:25.290Z,4.20
2023-05-19T21:18:12.639Z,2.90
2023-05-19T21:21:02.943Z,3.20
2023-05-19T21:23:49.510Z,2.70
2023-05-19T21:26:36.085Z,3.10
2023-05-19T21:29:22.490Z,3.00
2023-05-19T21:32:09.385Z,3.20
2023-05-19T21:34:55.881Z,3.80
2023-05-19T21:37:42.251Z,3.50
2023-05-19T21:40:29.060Z,3.40
2023-05-19T21:43:16.048Z,2.80
2023-05-19T21:46:03.164Z,3.00
2023-05-19T21:48:49.735Z,2.90
2023-05-19T21:51:36.848Z,2.80
2023-05-19T21:54:23.510Z,3.60
2023-05-19T21:57:12.376Z,3.60
2023-05-19T21:59:58.959Z,3.10
2023-05-19T22:02:45.700Z,3.00
2023-05-19T22:05:35.198Z,3.70
2023-05-19T22:08:22.814Z,2.70
2023-05-19T22:11:09.555Z,3.10
2023-05-19T22:13:56.386Z,2.90
2023-05-19T22:16:43.728Z,3.00
2023-05-19T22:19:30.417Z,2.80
2023-05-19T22:22:17.452Z,3.30
2023-05-19T22:25:04.058Z,3.10
2023-05-19T22:27:50.742Z,2.90
2023-05-19T22:30:41.122Z,3.10
2023-05-19T22:33:27.967Z,3.20
2023-05-19T22:36:16.230Z,3.00
2023-05-19T22:39:02.556Z,3.20
2023-05-19T22:41:49.149Z,3.10
2023-05-19T22:44:35.825Z,3.10
2023-05-19T22:47:22.144Z,3.70
2023-05-19T22:50:10.179Z,3.00
2023-05-19T22:52:56.575Z,2.90
2023-05-19T22:55:43.190Z,2.20
2023-05-19T22:58:30.227Z,3.30
2023-05-19T23:01:17.197Z,3.10
2023-05-19T23:04:04.141Z,3.20
2023-05-19T23:06:50.975Z,3.50
2023-05-19T23:09:37.541Z,4.00
2023-05-19T23:12:24.278Z,3.10
2023-05-19T23:15:11.293Z,3.10
2023-05-19T23:17:57.928Z,3.10
2023-05-19T23:20:44.853Z,3.60
2023-05-19T23:23:31.519Z,3.40
2023-05-19T23:26:17.982Z,3.70
2023-05-19T23:29:04.667Z,3.60
2023-05-19T23:31:51.202Z,3.30
2023-05-19T23:34:38.047Z,2.90
2023-05-19T23:37:24.611Z,3.60
2023-05-19T23:40:12.065Z,3.10
2023-05-19T23:42:58.537Z,3.70
2023-05-19T23:45:45.202Z,3.20
2023-05-19T23:48:31.624Z,3.30
2023-05-19T23:51:17.963Z,3.10
2023-05-19T23:54:04.555Z,2.90
2023-05-19T23:56:51.361Z,3.10
2023-05-19T23:59:37.791Z,3.30
